Time;durP1;ratioP1;P1;durP2;ratioP2;P2;SDS_P1;SDS_P2;PMS_P1;PMS_P2;Temp;Humidity;BMP_temperature;BMP_pressure;BME280_temperature;BME280_humidity;BME280_pressure;Samples;Min_cycle;Max_cycle;Signal;HPM_P1;HPM_P2
2023/05/09 00:01:54;;;;;;;10.43;6.55;;;;;;;;;;5066513;28;20040;-75
2023/05/09 00:04:26;;;;;;;9.50;6.50;;;;;;;;;;5066251;28;20071;-76
2023/05/09 00:06:57;;;;;;;8.98;6.38;;;;;;;;;;5066714;28;20075;-76
2023/05/09 00:09:28;;;;;;;8.63;5.78;;;;;;;;;;5066056;28;20689;-77
2023/05/09 00:12:01;;;;;;;9.65;7.43;;;;;;;;;;5064276;28;20545;-77
2023/05/09 00:14:33;;;;;;;8.55;7.28;;;;;;;;;;5066123;28;20045;-75
2023/05/09 00:17:04;;;;;;;13.88;6.40;;;;;;;;;;5065189;28;20048;-75
2023/05/09 00:19:38;;;;;;;13.38;7.05;;;;;;;;;;5066032;28;20091;-75
2023/05/09 00:22:11;;;;;;;10.77;7.68;;;;;;;;;;5066525;28;20045;-76
2023/05/09 00:24:45;;;;;;;7.40;6.20;;;;;;;;;;5065423;28;20052;-75
2023/05/09 00:27:18;;;;;;;8.18;6.20;;;;;;;;;;5064953;28;20048;-77
2023/05/09 00:29:50;;;;;;;8.32;6.38;;;;;;;;;;5066065;28;20071;-77
2023/05/09 00:32:24;;;;;;;8.80;5.45;;;;;;;;;;5066581;28;20045;-76
2023/05/09 00:34:58;;;;;;;6.07;4.75;;;;;;;;;;5064274;28;20063;-77
2023/05/09 00:37:31;;;;;;;6.30;4.60;;;;;;;;;;5064163;28;20052;-76
2023/05/09 00:40:05;;;;;;;5.82;4.47;;;;;;;;;;5064033;28;20139;-78
2023/05/09 00:42:38;;;;;;;10.77;4.20;;;;;;;;;;5065680;28;20041;-77
2023/05/09 00:45:12;;;;;;;7.47;4.95;;;;;;;;;;5063359;28;20065;-76
2023/05/09 00:47:45;;;;;;;9.05;5.43;;;;;;;;;;5066241;28;20548;-76
2023/05/09 00:50:23;;;;;;;7.68;4.78;;;;;;;;;;5064929;28;20060;-77
2023/05/09 00:52:55;;;;;;;7.32;4.78;;;;;;;;;;5066168;28;20056;-77
2023/05/09 00:55:28;;;;;;;6.82;4.30;;;;;;;;;;5064911;28;20411;-75
2023/05/09 00:57:59;;;;;;;8.40;4.57;;;;;;;;;;5065139;28;20059;-76
2023/05/09 01:00:33;;;;;;;14.38;4.60;;;;;;;;;;5062666;28;20064;-77
2023/05/09 01:03:06;;;;;;;7.28;5.05;;;;;;;;;;5063816;28;20071;-77
2023/05/09 01:06:07;;;;;;;9.60;5.15;;;;;;;;;;5063429;28;20055;-75
2023/05/09 01:08:51;;;;;;;8.43;4.65;;;;;;;;;;5043274;28;20063;-77
2023/05/09 01:11:38;;;;;;;6.95;5.05;;;;;;;;;;5062882;28;20048;-77
2023/05/09 01:14:22;;;;;;;9.90;4.68;;;;;;;;;;5064554;28;20048;-77
2023/05/09 01:16:59;;;;;;;13.82;5.18;;;;;;;;;;5064699;28;20052;-77
2023/05/09 01:19:56;;;;;;;8.93;4.20;;;;;;;;;;5064905;28;20041;-76
2023/05/09 01:22:34;;;;;;;7.63;5.07;;;;;;;;;;5062467;28;20053;-77
2023/05/09 01:25:36;;;;;;;7.40;3.83;;;;;;;;;;5064634;28;20388;-76
2023/05/09 01:28:12;;;;;;;6.18;4.40;;;;;;;;;;5065141;28;20064;-77
2023/05/09 01:30:46;;;;;;;7.47;4.88;;;;;;;;;;5063179;28;20060;-75
2023/05/09 01:33:19;;;;;;;;;;;;;;;;;;5065674;28;20056;-77
2023/05/09 01:36:00;;;;;;;8.27;4.45;;;;;;;;;;5065064;28;19983;-76
2023/05/09 01:38:33;;;;;;;7.63;5.07;;;;;;;;;;5065346;28;20051;-76
2023/05/09 01:41:08;;;;;;;5.93;3.95;;;;;;;;;;5065839;28;20410;-76
2023/05/09 01:43:40;;;;;;;6.45;4.25;;;;;;;;;;5063027;28;20053;-78
2023/05/09 01:46:12;;;;;;;8.30;4.53;;;;;;;;;;5063688;28;20053;-77
2023/05/09 01:48:44;;;;;;;10.07;4.72;;;;;;;;;;5064594;28;20075;-77
2023/05/09 01:51:16;;;;;;;8.35;4.72;;;;;;;;;;5064916;28;20407;-77
2023/05/09 01:53:50;;;;;;;9.05;5.38;;;;;;;;;;5064715;28;20040;-77
2023/05/09 01:56:23;;;;;;;8.20;5.03;;;;;;;;;;5062338;28;20052;-77
2023/05/09 01:58:56;;;;;;;7.15;5.07;;;;;;;;;;5062779;28;20064;-76
2023/05/09 02:01:29;;;;;;;7.07;4.90;;;;;;;;;;5064768;28;20044;-75
2023/05/09 02:04:02;;;;;;;6.50;4.72;;;;;;;;;;5066487;28;20056;-75
2023/05/09 02:06:34;;;;;;;9.43;4.47;;;;;;;;;;5067285;28;20071;-74
2023/05/09 02:09:04;;;;;;;9.20;4.75;;;;;;;;;;5064529;28;20044;-75
2023/05/09 02:11:35;;;;;;;8.20;5.10;;;;;;;;;;5047408;28;20056;-75
2023/05/09 02:14:06;;;;;;;7.72;4.85;;;;;;;;;;5047252;28;20045;-76
2023/05/09 02:16:38;;;;;;;9.63;5.45;;;;;;;;;;5047036;28;20080;-76
2023/05/09 02:19:09;;;;;;;6.70;5.30;;;;;;;;;;5047699;28;20057;-76
2023/05/09 02:21:39;;;;;;;8.98;4.97;;;;;;;;;;5046991;28;20060;-76
2023/05/09 02:24:12;;;;;;;8.25;5.45;;;;;;;;;;5048155;28;20076;-75
2023/05/09 02:26:44;;;;;;;9.18;5.47;;;;;;;;;;5048459;28;20045;-75
2023/05/09 02:29:18;;;;;;;11.50;4.78;;;;;;;;;;5048310;28;20061;-74
2023/05/09 02:31:50;;;;;;;10.05;4.85;;;;;;;;;;5049180;28;20052;-75
2023/05/09 02:34:22;;;;;;;7.15;4.40;;;;;;;;;;5046766;28;20068;-77
2023/05/09 02:36:53;;;;;;;10.15;5.82;;;;;;;;;;5046532;28;20057;-76
2023/05/09 02:39:23;;;;;;;9.00;5.25;;;;;;;;;;5046327;28;20045;-76
2023/05/09 02:41:54;;;;;;;9.20;5.45;;;;;;;;;;5046930;28;20057;-76
2023/05/09 02:44:28;;;;;;;8.00;5.10;;;;;;;;;;5048390;28;20049;-76
2023/05/09 02:46:59;;;;;;;7.15;5.07;;;;;;;;;;5048839;28;20511;-76
2023/05/09 02:49:28;;;;;;;7.57;4.65;;;;;;;;;;5047290;28;20056;-75
2023/05/09 02:52:02;;;;;;;8.77;4.70;;;;;;;;;;5046729;28;20053;-76
2023/05/09 02:54:33;;;;;;;9.23;4.28;;;;;;;;;;5047518;28;20056;-76
2023/05/09 02:57:05;;;;;;;5.95;4.43;;;;;;;;;;5046192;28;20041;-75
2023/05/09 02:59:36;;;;;;;6.97;4.20;;;;;;;;;;5047916;28;20416;-75
2023/05/09 03:02:06;;;;;;;6.22;3.70;;;;;;;;;;5046397;28;20045;-74
2023/05/09 03:04:37;;;;;;;6.03;4.20;;;;;;;;;;5045893;28;20059;-77
2023/05/09 03:07:07;;;;;;;10.73;4.55;;;;;;;;;;5048101;28;20045;-75
2023/05/09 03:09:38;;;;;;;8.82;4.60;;;;;;;;;;5047912;28;20057;-76
2023/05/09 03:12:09;;;;;;;9.77;4.43;;;;;;;;;;5048114;28;20075;-74
2023/05/09 03:14:40;;;;;;;8.35;3.70;;;;;;;;;;5046974;28;20045;-76
2023/05/09 03:17:10;;;;;;;7.22;3.17;;;;;;;;;;5044731;28;20431;-75
2023/05/09 03:19:40;;;;;;;6.78;3.30;;;;;;;;;;5045537;28;20523;-75
2023/05/09 03:22:11;;;;;;;6.53;3.67;;;;;;;;;;5046139;28;20057;-76
2023/05/09 03:24:50;;;;;;;5.70;3.03;;;;;;;;;;5045909;28;20056;-76
2023/05/09 03:27:20;;;;;;;4.70;3.38;;;;;;;;;;5047183;28;20076;-76
2023/05/09 03:29:51;;;;;;;4.93;3.08;;;;;;;;;;5045777;28;20420;-76
2023/05/09 03:32:22;;;;;;;4.82;3.47;;;;;;;;;;5047494;28;20045;-77
2023/05/09 03:34:53;;;;;;;8.50;3.65;;;;;;;;;;5046047;28;20536;-76
2023/05/09 03:37:23;;;;;;;7.78;3.67;;;;;;;;;;5045877;28;20526;-77
2023/05/09 03:39:55;;;;;;;8.68;3.78;;;;;;;;;;5045690;28;20049;-77
2023/05/09 03:42:28;;;;;;;6.38;3.22;;;;;;;;;;5047534;28;20044;-76
2023/05/09 03:45:01;;;;;;;5.25;3.15;;;;;;;;;;5044925;28;20389;-77
2023/05/09 03:47:31;;;;;;;5.00;2.95;;;;;;;;;;5046949;28;20061;-77
2023/05/09 03:50:01;;;;;;;10.80;3.05;;;;;;;;;;5045133;28;20397;-75
2023/05/09 03:52:32;;;;;;;5.65;3.33;;;;;;;;;;5045584;28;20072;-75
2023/05/09 03:55:05;;;;;;;8.32;3.63;;;;;;;;;;5046575;28;20047;-75
2023/05/09 03:57:37;;;;;;;8.50;4.22;;;;;;;;;;5045017;28;20057;-75
2023/05/09 04:00:09;;;;;;;4.72;3.28;;;;;;;;;;5044859;28;20060;-76
2023/05/09 04:02:42;;;;;;;4.80;3.30;;;;;;;;;;5048771;28;20045;-76
2023/05/09 04:05:22;;;;;;;6.53;3.20;;;;;;;;;;5044856;28;20508;-75
2023/05/09 04:07:52;;;;;;;6.72;3.38;;;;;;;;;;5046646;28;20080;-74
2023/05/09 04:10:24;;;;;;;9.70;3.80;;;;;;;;;;5044762;28;20056;-77
2023/05/09 04:12:56;;;;;;;5.65;3.38;;;;;;;;;;5045562;28;20389;-77
2023/05/09 04:15:27;;;;;;;9.70;3.20;;;;;;;;;;5046329;28;20500;-75
2023/05/09 04:17:58;;;;;;;13.52;3.90;;;;;;;;;;5043988;28;20057;-75
2023/05/09 04:20:30;;;;;;;12.50;3.67;;;;;;;;;;5044185;28;20056;-77
2023/05/09 04:23:00;;;;;;;12.52;3.70;;;;;;;;;;5045147;28;20534;-77
2023/05/09 04:25:31;;;;;;;13.98;3.45;;;;;;;;;;5045058;28;20064;-75
2023/05/09 04:28:03;;;;;;;5.75;3.97;;;;;;;;;;5043941;28;20049;-77
2023/05/09 04:30:33;;;;;;;9.32;3.92;;;;;;;;;;5044475;28;20103;-76
2023/05/09 04:33:04;;;;;;;5.45;4.03;;;;;;;;;;5044519;28;20056;-75
2023/05/09 04:35:35;;;;;;;5.70;3.55;;;;;;;;;;5028090;28;20056;-75
2023/05/09 04:38:05;;;;;;;8.30;4.10;;;;;;;;;;5044545;28;20052;-75
2023/05/09 04:40:35;;;;;;;5.57;3.60;;;;;;;;;;5044260;28;20049;-77
2023/05/09 04:43:06;;;;;;;5.20;3.63;;;;;;;;;;5044339;28;20045;-77
2023/05/09 04:45:37;;;;;;;9.07;4.03;;;;;;;;;;5044747;28;20052;-77
2023/05/09 04:48:07;;;;;;;7.47;4.05;;;;;;;;;;5043835;28;20060;-75
2023/05/09 04:50:37;;;;;;;5.47;3.50;;;;;;;;;;5043820;28;20056;-76
2023/05/09 04:53:08;;;;;;;6.88;3.60;;;;;;;;;;5045207;28;20060;-75
2023/05/09 04:55:39;;;;;;;10.32;3.80;;;;;;;;;;5043698;28;20053;-75
2023/05/09 04:58:09;;;;;;;6.10;3.97;;;;;;;;;;5043797;28;20515;-77
2023/05/09 05:00:39;;;;;;;8.05;3.30;;;;;;;;;;5045734;28;20060;-76
2023/05/09 05:03:12;;;;;;;5.80;3.45;;;;;;;;;;5044306;28;20052;-77
2023/05/09 05:05:44;;;;;;;5.22;3.00;;;;;;;;;;5043852;28;20049;-77
2023/05/09 05:08:14;;;;;;;9.18;3.20;;;;;;;;;;5043749;28;20420;-78
2023/05/09 05:10:46;;;;;;;4.60;3.42;;;;;;;;;;5043898;28;20061;-75
2023/05/09 05:13:18;;;;;;;4.85;3.45;;;;;;;;;;5043978;28;20053;-77
2023/05/09 05:15:55;;;;;;;5.97;3.22;;;;;;;;;;5043767;28;20053;-77
2023/05/09 05:18:25;;;;;;;5.82;3.20;;;;;;;;;;5043614;28;20057;-75
2023/05/09 05:20:55;;;;;;;;;;;;;;;;;;5045883;28;20056;-77
2023/05/09 05:23:27;;;;;;;7.68;2.75;;;;;;;;;;5043463;28;20303;-75
2023/05/09 05:25:58;;;;;;;4.22;3.10;;;;;;;;;;5045385;28;20052;-77
2023/05/09 05:28:30;;;;;;;5.80;2.88;;;;;;;;;;5042912;28;20423;-75
2023/05/09 05:31:00;;;;;;;5.75;3.33;;;;;;;;;;5043519;28;20048;-77
2023/05/09 05:33:30;;;;;;;5.50;3.28;;;;;;;;;;5045148;28;20049;-75
2023/05/09 05:36:03;;;;;;;8.75;3.30;;;;;;;;;;5043873;28;20049;-76
2023/05/09 05:38:33;;;;;;;7.55;3.30;;;;;;;;;;5044255;28;20045;-77
2023/05/09 05:41:04;;;;;;;6.60;3.00;;;;;;;;;;5042909;28;20045;-78
2023/05/09 05:43:35;;;;;;;5.53;2.90;;;;;;;;;;5044812;28;20040;-75
2023/05/09 05:46:06;;;;;;;5.65;3.30;;;;;;;;;;5043422;28;20044;-74
2023/05/09 05:48:37;;;;;;;4.32;2.65;;;;;;;;;;5043182;28;20057;-76
2023/05/09 05:51:08;;;;;;;7.75;3.05;;;;;;;;;;5043529;28;20049;-75
2023/05/09 05:53:41;;;;;;;8.10;3.28;;;;;;;;;;5043543;28;20096;-76
2023/05/09 05:56:11;;;;;;;5.75;2.80;;;;;;;;;;5043073;28;20056;-76
2023/05/09 05:58:41;;;;;;;6.68;3.30;;;;;;;;;;5044516;28;20041;-75
2023/05/09 06:01:12;;;;;;;6.40;3.13;;;;;;;;;;5043486;28;20072;-78
2023/05/09 06:03:43;;;;;;;5.47;2.58;;;;;;;;;;5042996;28;20415;-77
2023/05/09 06:06:13;;;;;;;7.57;2.90;;;;;;;;;;5043250;28;20044;-77
2023/05/09 06:08:45;;;;;;;7.00;2.97;;;;;;;;;;5043417;28;20500;-75
2023/05/09 06:11:15;;;;;;;8.93;2.85;;;;;;;;;;5043422;28;20057;-76
2023/05/09 06:13:46;;;;;;;5.25;3.17;;;;;;;;;;5044490;28;20041;-77
2023/05/09 06:16:17;;;;;;;5.82;2.47;;;;;;;;;;5027129;28;20049;-77
2023/05/09 06:18:50;;;;;;;5.65;2.50;;;;;;;;;;5042452;28;20064;-76
2023/05/09 06:21:23;;;;;;;4.15;2.97;;;;;;;;;;5042896;28;20060;-76
2023/05/09 06:23:53;;;;;;;;;;;;;;;;;;5043889;28;20080;-77
2023/05/09 06:26:36;;;;;;;7.28;2.53;;;;;;;;;;5043185;28;19926;-76
2023/05/09 06:29:08;;;;;;;4.57;2.60;;;;;;;;;;5044295;28;20057;-75
2023/05/09 06:31:39;;;;;;;5.85;2.10;;;;;;;;;;5044710;28;20779;-76
2023/05/09 06:34:09;;;;;;;8.80;2.72;;;;;;;;;;5044723;28;20068;-75
2023/05/09 06:36:39;;;;;;;7.20;2.58;;;;;;;;;;5044614;28;20041;-77
2023/05/09 06:39:10;;;;;;;3.50;2.45;;;;;;;;;;5044536;28;20072;-76
2023/05/09 06:41:40;;;;;;;3.35;2.65;;;;;;;;;;5044504;28;20052;-76
2023/05/09 06:44:10;;;;;;;4.70;2.50;;;;;;;;;;5044218;28;20641;-75
2023/05/09 06:46:40;;;;;;;4.22;2.67;;;;;;;;;;5044823;28;20503;-75
2023/05/09 06:49:18;;;;;;;4.22;2.33;;;;;;;;;;5044043;28;20045;-75
2023/05/09 06:51:47;;;;;;;7.55;2.95;;;;;;;;;;5047608;28;20060;-77
2023/05/09 06:54:18;;;;;;;10.30;2.53;;;;;;;;;;5047838;28;20049;-77
2023/05/09 06:56:48;;;;;;;5.00;2.63;;;;;;;;;;5047869;28;20048;-76
2023/05/09 06:59:18;;;;;;;;;;;;;;;;;;5048554;28;20049;-76
2023/05/09 07:01:48;;;;;;;4.53;2.50;;;;;;;;;;5047809;28;19925;-77
2023/05/09 07:04:19;;;;;;;3.35;2.10;;;;;;;;;;5047736;28;20060;-77
2023/05/09 07:06:48;;;;;;;;;;;;;;;;;;5048977;28;20777;-77
2023/05/09 07:09:19;;;;;;;3.75;2.05;;;;;;;;;;5046447;28;20379;-76
2023/05/09 07:11:49;;;;;;;4.10;2.40;;;;;;;;;;5047836;28;20064;-75
2023/05/09 07:14:20;;;;;;;3.75;2.42;;;;;;;;;;5046487;28;20063;-76
2023/05/09 07:16:50;;;;;;;;;;;;;;;;;;5047937;28;20029;-77
2023/05/09 07:19:20;;;;;;;3.08;2.30;;;;;;;;;;5047345;28;19921;-76
2023/05/09 07:21:50;;;;;;;6.07;2.38;;;;;;;;;;5047132;28;20055;-77
2023/05/09 07:24:20;;;;;;;2.70;2.20;;;;;;;;;;5047334;28;20056;-76
2023/05/09 07:26:50;;;;;;;;;;;;;;;;;;5047952;28;20075;-77
2023/05/09 07:29:21;;;;;;;2.53;2.10;;;;;;;;;;5047605;28;20649;-76
2023/05/09 07:31:51;;;;;;;6.32;2.35;;;;;;;;;;5046983;28;20056;-77
2023/05/09 07:34:24;;;;;;;3.92;2.08;;;;;;;;;;5047188;28;20045;-78
2023/05/09 07:36:54;;;;;;;6.43;2.53;;;;;;;;;;5047303;28;20044;-78
2023/05/09 07:39:23;;;;;;;5.40;2.30;;;;;;;;;;5047042;28;20072;-77
2023/05/09 07:41:55;;;;;;;3.40;2.20;;;;;;;;;;5046843;28;20049;-77
2023/05/09 07:44:25;;;;;;;5.18;2.30;;;;;;;;;;5047267;28;20041;-77
2023/05/09 07:46:58;;;;;;;8.68;2.45;;;;;;;;;;5047517;28;20045;-76
2023/05/09 07:49:28;;;;;;;4.00;2.30;;;;;;;;;;5045939;28;20041;-77
2023/05/09 07:51:58;;;;;;;4.45;2.30;;;;;;;;;;5046761;28;20057;-76
2023/05/09 07:54:28;;;;;;;3.38;2.10;;;;;;;;;;5046954;28;20049;-78
2023/05/09 07:56:58;;;;;;;;;;;;;;;;;;5047308;28;20041;-77
2023/05/09 07:59:29;;;;;;;7.28;2.33;;;;;;;;;;5046798;28;19924;-76
2023/05/09 08:01:59;;;;;;;3.35;1.60;;;;;;;;;;5044567;28;20400;-77
2023/05/09 08:04:31;;;;;;;2.53;1.83;;;;;;;;;;5046436;28;20075;-78
2023/05/09 08:07:02;;;;;;;7.53;1.85;;;;;;;;;;5047242;28;20045;-77
2023/05/09 08:09:33;;;;;;;4.47;2.10;;;;;;;;;;5046665;28;20049;-77
2023/05/09 08:12:03;;;;;;;6.25;2.13;;;;;;;;;;5046914;28;20045;-77
2023/05/09 08:14:33;;;;;;;3.45;2.10;;;;;;;;;;5046200;28;20048;-77
2023/05/09 08:17:04;;;;;;;5.93;1.95;;;;;;;;;;5045997;28;20052;-77
2023/05/09 08:19:34;;;;;;;2.85;2.00;;;;;;;;;;5046342;28;20056;-77
2023/05/09 08:22:04;;;;;;;9.18;2.35;;;;;;;;;;5044803;28;20076;-76
2023/05/09 08:24:35;;;;;;;2.35;1.88;;;;;;;;;;5044873;28;20056;-78
2023/05/09 08:27:04;;;;;;;4.25;2.05;;;;;;;;;;5044909;28;20867;-78
2023/05/09 08:29:35;;;;;;;3.38;2.22;;;;;;;;;;5044487;28;20049;-78
2023/05/09 08:32:06;;;;;;;4.88;2.20;;;;;;;;;;5044398;28;20057;-76
2023/05/09 08:34:37;;;;;;;2.97;2.17;;;;;;;;;;5045987;28;20055;-76
2023/05/09 08:37:07;;;;;;;2.60;2.08;;;;;;;;;;5045998;28;20053;-77
2023/05/09 08:39:37;;;;;;;3.00;2.33;;;;;;;;;;5044511;28;20504;-78
2023/05/09 08:42:09;;;;;;;6.43;2.13;;;;;;;;;;5046424;28;20048;-75
2023/05/09 08:44:40;;;;;;;3.75;2.10;;;;;;;;;;5045512;28;20492;-77
2023/05/09 08:47:11;;;;;;;2.50;2.10;;;;;;;;;;5045601;28;20496;-76
2023/05/09 08:49:44;;;;;;;5.53;2.30;;;;;;;;;;5044522;28;20388;-76
2023/05/09 08:52:15;;;;;;;3.95;2.25;;;;;;;;;;5044467;28;20041;-78
2023/05/09 08:54:46;;;;;;;3.50;2.30;;;;;;;;;;5045520;28;20041;-76
2023/05/09 08:57:16;;;;;;;4.22;2.38;;;;;;;;;;5045918;28;20488;-78
2023/05/09 08:59:48;;;;;;;5.45;2.58;;;;;;;;;;5045820;28;20052;-78
2023/05/09 09:02:20;;;;;;;2.78;2.17;;;;;;;;;;5043768;28;20061;-78
2023/05/09 09:04:51;;;;;;;2.38;2.00;;;;;;;;;;5045289;28;20049;-77
2023/05/09 09:07:25;;;;;;;3.45;2.08;;;;;;;;;;5045560;28;20127;-78
2023/05/09 09:09:59;;;;;;;3.83;2.33;;;;;;;;;;5045802;28;20037;-78
2023/05/09 09:12:30;;;;;;;4.30;1.40;;;;;;;;;;5044887;28;20405;-77
2023/05/09 09:15:05;;;;;;;3.92;2.08;;;;;;;;;;5045179;28;20071;-78
2023/05/09 09:17:40;;;;;;;3.95;1.77;;;;;;;;;;5045384;28;20045;-77
2023/05/09 09:20:13;;;;;;;4.20;1.98;;;;;;;;;;5044992;28;20538;-77
2023/05/09 09:22:48;;;;;;;7.80;1.90;;;;;;;;;;5045066;28;20049;-77
2023/05/09 09:25:19;;;;;;;3.85;1.98;;;;;;;;;;5045477;28;20045;-78
2023/05/09 09:27:49;;;;;;;8.88;2.58;;;;;;;;;;5045116;28;20048;-78
2023/05/09 09:30:24;;;;;;;6.43;2.30;;;;;;;;;;5045026;28;20068;-77
2023/05/09 09:32:54;;;;;;;5.07;2.20;;;;;;;;;;5045178;28;20049;-77
2023/05/09 09:35:23;;;;;;;;;;;;;;;;;;5046086;28;20052;-76
2023/05/09 09:37:58;;;;;;;6.80;1.75;;;;;;;;;;5044687;28;19925;-78
2023/05/09 09:40:29;;;;;;;3.03;1.75;;;;;;;;;;5045031;28;20059;-78
2023/05/09 09:43:00;;;;;;;2.38;1.70;;;;;;;;;;5044996;28;20052;-79
2023/05/09 09:45:29;;;;;;;;;;;;;;;;;;5045858;28;20056;-78
2023/05/09 09:48:06;;;;;;;3.17;1.80;;;;;;;;;;5045629;28;19927;-78
2023/05/09 09:50:37;;;;;;;7.32;1.90;;;;;;;;;;5045613;28;20068;-77
2023/05/09 09:53:08;;;;;;;3.67;1.92;;;;;;;;;;5044600;28;20060;-77
2023/05/09 09:55:52;;;;;;;2.75;2.17;;;;;;;;;;5044710;28;20056;-78
2023/05/09 09:58:23;;;;;;;2.53;1.52;;;;;;;;;;5044808;28;20049;-79
2023/05/09 10:01:17;;;;;;;3.95;1.90;;;;;;;;;;5044364;28;20500;-78
2023/05/09 10:03:49;;;;;;;2.95;1.90;;;;;;;;;;5045229;28;20617;-78
2023/05/09 10:06:19;;;;;;;1.80;1.65;;;;;;;;;;5043595;28;20049;-77
2023/05/09 10:08:49;;;;;;;5.03;2.03;;;;;;;;;;5044895;28;20045;-77
2023/05/09 10:11:20;;;;;;;3.13;2.00;;;;;;;;;;5044844;28;20060;-80
2023/05/09 10:13:51;;;;;;;7.07;2.22;;;;;;;;;;5044622;28;20045;-78
2023/05/09 10:16:22;;;;;;;4.15;1.80;;;;;;;;;;5044925;28;20045;-78
2023/05/09 10:19:12;;;;;;;5.00;2.10;;;;;;;;;;5042975;28;20052;-79
2023/05/09 10:21:43;;;;;;;6.32;2.55;;;;;;;;;;5045409;28;20048;-78
2023/05/09 10:24:22;;;;;;;2.33;1.85;;;;;;;;;;5044968;28;20404;-76
2023/05/09 10:26:59;;;;;;;3.85;2.13;;;;;;;;;;5048462;28;20044;-77
2023/05/09 10:29:36;;;;;;;10.45;2.42;;;;;;;;;;5046989;28;20083;-77
2023/05/09 10:32:22;;;;;;;7.68;2.30;;;;;;;;;;5046561;28;20045;-78
2023/05/09 10:34:58;;;;;;;6.32;2.83;;;;;;;;;;5048726;28;20041;-77
2023/05/09 10:37:30;;;;;;;5.85;3.97;;;;;;;;;;5048624;28;20048;-78
2023/05/09 10:40:04;;;;;;;7.35;4.30;;;;;;;;;;5046489;28;20053;-77
2023/05/09 10:42:34;;;;;;;3.92;3.17;;;;;;;;;;5048636;28;20427;-78
2023/05/09 10:45:07;;;;;;;9.40;3.13;;;;;;;;;;5048126;28;20044;-77
2023/05/09 10:47:41;;;;;;;3.70;2.38;;;;;;;;;;5048149;28;20060;-78
2023/05/09 10:50:12;;;;;;;4.65;2.38;;;;;;;;;;5046118;28;20061;-77
2023/05/09 10:53:13;;;;;;;4.82;2.40;;;;;;;;;;5047952;28;20049;-77
2023/05/09 10:55:59;;;;;;;5.53;2.15;;;;;;;;;;5048641;28;20507;-78
2023/05/09 10:58:35;;;;;;;6.15;2.20;;;;;;;;;;5047994;28;20430;-77
2023/05/09 11:01:05;;;;;;;3.30;2.67;;;;;;;;;;5047762;28;20053;-77
2023/05/09 11:03:52;;;;;;;2.88;2.33;;;;;;;;;;5045999;28;20056;-77
2023/05/09 11:06:47;;;;;;;7.30;2.40;;;;;;;;;;5047627;28;20049;-77
2023/05/09 11:09:31;;;;;;;2.88;2.25;;;;;;;;;;5047609;28;20045;-78
2023/05/09 11:12:04;;;;;;;5.13;1.90;;;;;;;;;;5048472;28;20053;-78
2023/05/09 11:14:38;;;;;;;4.15;1.63;;;;;;;;;;5047337;28;20526;-79
2023/05/09 11:17:10;;;;;;;3.85;1.67;;;;;;;;;;5047489;28;20036;-78
2023/05/09 11:19:46;;;;;;;1.88;1.65;;;;;;;;;;5047372;28;20053;-78
2023/05/09 11:22:26;;;;;;;5.13;1.50;;;;;;;;;;5046831;28;20060;-78
2023/05/09 11:25:07;;;;;;;3.15;1.50;;;;;;;;;;5047182;28;20056;-76
2023/05/09 11:27:45;;;;;;;4.72;1.45;;;;;;;;;;5045839;28;20052;-77
2023/05/09 11:30:19;;;;;;;5.10;1.50;;;;;;;;;;5047435;28;20531;-76
2023/05/09 11:32:54;;;;;;;1.90;1.40;;;;;;;;;;5047496;28;20480;-78
2023/05/09 11:35:27;;;;;;;3.78;1.45;;;;;;;;;;5046843;28;20041;-78
2023/05/09 11:38:08;;;;;;;5.53;1.55;;;;;;;;;;5045941;28;20057;-77
2023/05/09 11:40:39;;;;;;;5.85;2.53;;;;;;;;;;5047233;28;20044;-77
2023/05/09 11:43:09;;;;;;;10.23;2.10;;;;;;;;;;5047253;28;20059;-80
2023/05/09 11:45:40;;;;;;;18.38;3.33;;;;;;;;;;5047200;28;20424;-79
2023/05/09 11:48:11;;;;;;;11.07;2.05;;;;;;;;;;5046924;28;20071;-77
2023/05/09 11:50:41;;;;;;;6.03;1.75;;;;;;;;;;5046906;28;20411;-77
2023/05/09 11:53:11;;;;;;;9.30;1.70;;;;;;;;;;5046804;28;20049;-77
2023/05/09 11:55:42;;;;;;;6.45;1.55;;;;;;;;;;5047013;28;20055;-77
2023/05/09 11:58:14;;;;;;;10.45;1.60;;;;;;;;;;5047018;28;20048;-76
2023/05/09 12:00:45;;;;;;;1.20;1.00;;;;;;;;;;5046738;28;20048;-83
2023/05/09 12:03:15;;;;;;;11.38;2.40;;;;;;;;;;5046904;28;20052;-77
2023/05/09 12:05:48;;;;;;;5.30;1.38;;;;;;;;;;5046714;28;20411;-77
2023/05/09 12:08:19;;;;;;;2.63;1.27;;;;;;;;;;5046739;28;20056;-82
2023/05/09 12:10:50;;;;;;;3.33;1.20;;;;;;;;;;5044210;28;20057;-76
2023/05/09 12:13:20;;;;;;;5.10;0.88;;;;;;;;;;5046801;28;20417;-78
2023/05/09 12:15:51;;;;;;;6.60;1.10;;;;;;;;;;5046305;28;20049;-80
2023/05/09 12:18:23;;;;;;;2.72;1.20;;;;;;;;;;5045994;28;20393;-78
2023/05/09 12:20:53;;;;;;;6.40;2.63;;;;;;;;;;5046463;28;20053;-79
2023/05/09 12:23:23;;;;;;;5.90;1.60;;;;;;;;;;5045593;28;20064;-79
2023/05/09 12:25:56;;;;;;;7.25;1.38;;;;;;;;;;5046376;28;20056;-79
2023/05/09 12:28:27;;;;;;;3.80;1.02;;;;;;;;;;5045903;28;20431;-80
2023/05/09 12:30:57;;;;;;;4.60;1.10;;;;;;;;;;5046452;28;20060;-77
2023/05/09 12:33:29;;;;;;;1.65;1.10;;;;;;;;;;5045993;28;20040;-77
2023/05/09 12:36:02;;;;;;;4.82;1.20;;;;;;;;;;5046256;28;20060;-80
2023/05/09 12:38:34;;;;;;;23.05;1.90;;;;;;;;;;5046118;28;20645;-78
2023/05/09 12:41:09;;;;;;;3.42;1.40;;;;;;;;;;5045746;28;20056;-79
2023/05/09 12:43:59;;;;;;;2.35;1.60;;;;;;;;;;5045749;28;20052;-77
2023/05/09 12:46:31;;;;;;;3.58;1.67;;;;;;;;;;5045558;28;20052;-78
2023/05/09 12:49:04;;;;;;;2.45;1.20;;;;;;;;;;5045805;28;20057;-76
2023/05/09 12:51:34;;;;;;;4.43;1.17;;;;;;;;;;5045574;28;20052;-78
2023/05/09 12:54:04;;;;;;;4.43;1.60;;;;;;;;;;5044852;28;20049;-79
2023/05/09 12:56:35;;;;;;;7.40;1.63;;;;;;;;;;5045671;28;20056;-78
2023/05/09 12:59:13;;;;;;;6.03;2.78;;;;;;;;;;5044669;28;20059;-79
2023/05/09 13:01:43;;;;;;;2.60;1.33;;;;;;;;;;5045100;28;20048;-79
2023/05/09 13:04:14;;;;;;;5.63;1.90;;;;;;;;;;5045560;28;20060;-79
2023/05/09 13:06:54;;;;;;;12.10;2.08;;;;;;;;;;5045785;28;20036;-79
2023/05/09 13:09:26;;;;;;;4.60;1.40;;;;;;;;;;5045189;28;20500;-79
2023/05/09 13:11:57;;;;;;;5.60;1.30;;;;;;;;;;5046065;28;20064;-78
2023/05/09 13:14:27;;;;;;;10.48;1.88;;;;;;;;;;5045262;28;20045;-80
2023/05/09 13:16:57;;;;;;;4.90;1.88;;;;;;;;;;5045404;28;20052;-77
2023/05/09 13:19:29;;;;;;;3.03;1.65;;;;;;;;;;5045275;28;20063;-79
2023/05/09 13:22:00;;;;;;;5.32;1.73;;;;;;;;;;5045007;28;20049;-84
2023/05/09 13:24:31;;;;;;;20.20;6.10;;;;;;;;;;5043705;28;20072;-77
2023/05/09 13:27:03;;;;;;;8.82;2.80;;;;;;;;;;5043337;28;20087;-77
2023/05/09 13:29:36;;;;;;;18.85;2.63;;;;;;;;;;5045446;28;20399;-79
2023/05/09 13:32:06;;;;;;;11.85;2.22;;;;;;;;;;5043296;28;20052;-79
2023/05/09 13:34:38;;;;;;;6.65;2.17;;;;;;;;;;5045022;28;20415;-82
2023/05/09 13:37:09;;;;;;;6.55;2.08;;;;;;;;;;5044953;28;20071;-77
2023/05/09 13:39:40;;;;;;;4.85;2.08;;;;;;;;;;5045336;28;20045;-80
2023/05/09 13:42:10;;;;;;;5.97;2.20;;;;;;;;;;5045131;28;20045;-80
2023/05/09 13:44:40;;;;;;;8.35;2.40;;;;;;;;;;5044748;28;20052;-79
2023/05/09 13:47:12;;;;;;;5.45;2.10;;;;;;;;;;5043781;28;20060;-76
2023/05/09 13:49:41;;;;;;;4.80;2.22;;;;;;;;;;5045278;28;20075;-78
2023/05/09 13:52:16;;;;;;;7.63;3.35;;;;;;;;;;5045043;28;20049;-74
2023/05/09 13:54:46;;;;;;;5.80;2.72;;;;;;;;;;5044908;28;20099;-75
2023/05/09 13:57:16;;;;;;;6.07;2.58;;;;;;;;;;5045078;28;20045;-76
2023/05/09 13:59:46;;;;;;;5.30;1.92;;;;;;;;;;5045508;28;20059;-75
2023/05/09 14:02:17;;;;;;;5.10;2.08;;;;;;;;;;5047409;28;20049;-75
2023/05/09 14:04:48;;;;;;;5.63;2.13;;;;;;;;;;5048532;28;20484;-76
2023/05/09 14:07:19;;;;;;;18.50;4.25;;;;;;;;;;5048793;28;20053;-76
2023/05/09 14:09:50;;;;;;;3.33;2.33;;;;;;;;;;5047089;28;20060;-75
2023/05/09 14:12:29;;;;;;;9.85;2.40;;;;;;;;;;5047906;28;20052;-74
2023/05/09 14:15:01;;;;;;;4.30;2.28;;;;;;;;;;5048302;28;20083;-76
2023/05/09 14:17:31;;;;;;;7.35;2.30;;;;;;;;;;5048909;28;20053;-76
2023/05/09 14:20:02;;;;;;;4.18;2.22;;;;;;;;;;5048358;28;20045;-79
2023/05/09 14:22:34;;;;;;;7.93;2.17;;;;;;;;;;5048663;28;20604;-77
2023/05/09 14:25:04;;;;;;;4.18;1.23;;;;;;;;;;5048459;28;20033;-81
2023/05/09 14:27:37;;;;;;;3.45;1.10;;;;;;;;;;5048358;28;20060;-80
2023/05/09 14:30:09;;;;;;;2.70;1.13;;;;;;;;;;5048484;28;20436;-75
2023/05/09 14:32:40;;;;;;;5.15;2.30;;;;;;;;;;5047932;28;20049;-77
2023/05/09 14:35:10;;;;;;;3.05;1.00;;;;;;;;;;5048628;28;20053;-79
2023/05/09 14:37:42;;;;;;;5.65;1.33;;;;;;;;;;5048446;28;20049;-77
2023/05/09 14:40:13;;;;;;;4.63;2.03;;;;;;;;;;5046731;28;20499;-78
2023/05/09 14:42:46;;;;;;;2.03;1.23;;;;;;;;;;5048052;28;20049;-76
2023/05/09 14:45:16;;;;;;;2.58;1.48;;;;;;;;;;5047919;28;20044;-77
2023/05/09 14:47:46;;;;;;;2.88;1.25;;;;;;;;;;5047550;28;20049;-78
2023/05/09 14:50:17;;;;;;;4.00;1.10;;;;;;;;;;5047350;28;20854;-76
2023/05/09 14:52:52;;;;;;;1.92;1.20;;;;;;;;;;5047977;28;20413;-76
2023/05/09 14:55:22;;;;;;;2.50;1.15;;;;;;;;;;5048389;28;20400;-76
2023/05/09 14:57:55;;;;;;;3.00;1.08;;;;;;;;;;5048299;28;20053;-77
2023/05/09 15:00:25;;;;;;;4.28;1.40;;;;;;;;;;5047599;28;20120;-80
2023/05/09 15:02:57;;;;;;;2.75;1.02;;;;;;;;;;5048114;28;20071;-76
2023/05/09 15:05:27;;;;;;;2.20;1.38;;;;;;;;;;5048015;28;21201;-76
2023/05/09 15:07:57;;;;;;;5.13;1.10;;;;;;;;;;5047492;28;20852;-76
2023/05/09 15:10:28;;;;;;;1.45;0.90;;;;;;;;;;5048341;28;20048;-76
2023/05/09 15:13:02;;;;;;;2.20;1.00;;;;;;;;;;5047473;28;20049;-79
2023/05/09 15:15:34;;;;;;;2.17;0.80;;;;;;;;;;5047778;28;20040;-77
2023/05/09 15:18:06;;;;;;;3.72;1.02;;;;;;;;;;5047336;28;20048;-76